sensor_id;sensor_type;location;lat;lon;timestamp;pressure;altitude;pressure_sealevel;temperature
68510;BMP180;55512;50.102;19.958;2022-07-29T00:02:26;99081.00;;;18.30
68510;BMP180;55512;50.102;19.958;2022-07-29T00:04:52;99082.80;;;18.30
68510;BMP180;55512;50.102;19.958;2022-07-29T00:07:18;99081.40;;;18.30
68510;BMP180;55512;50.102;19.958;2022-07-29T00:09:44;99076.80;;;18.28
68510;BMP180;55512;50.102;19.958;2022-07-29T00:12:09;99078.80;;;18.26
68510;BMP180;55512;50.102;19.958;2022-07-29T00:14:35;99075.00;;;18.30
68510;BMP180;55512;50.102;19.958;2022-07-29T00:17:00;99075.80;;;18.30
68510;BMP180;55512;50.102;19.958;2022-07-29T00:19:26;99078.80;;;18.30
68510;BMP180;55512;50.102;19.958;2022-07-29T00:21:51;99077.40;;;18.30
68510;BMP180;55512;50.102;19.958;2022-07-29T00:24:17;99077.80;;;18.30
68510;BMP180;55512;50.102;19.958;2022-07-29T00:26:42;99078.20;;;18.30
68510;BMP180;55512;50.102;19.958;2022-07-29T00:29:07;99081.00;;;18.30
68510;BMP180;55512;50.102;19.958;2022-07-29T00:31:33;99079.00;;;18.30
68510;BMP180;55512;50.102;19.958;2022-07-29T00:33:58;99079.20;;;18.30
68510;BMP180;55512;50.102;19.958;2022-07-29T00:36:24;99082.80;;;18.40
68510;BMP180;55512;50.102;19.958;2022-07-29T00:38:51;99084.80;;;18.40
68510;BMP180;55512;50.102;19.958;2022-07-29T00:41:17;99084.60;;;18.40
68510;BMP180;55512;50.102;19.958;2022-07-29T00:43:43;99083.00;;;18.40
68510;BMP180;55512;50.102;19.958;2022-07-29T00:46:10;99078.60;;;18.40
68510;BMP180;55512;50.102;19.958;2022-07-29T00:48:36;99079.00;;;18.30
68510;BMP180;55512;50.102;19.958;2022-07-29T00:51:04;99068.60;;;18.30
68510;BMP180;55512;50.102;19.958;2022-07-29T00:53:31;99070.80;;;18.30
68510;BMP180;55512;50.102;19.958;2022-07-29T00:55:58;99071.60;;;18.30
68510;BMP180;55512;50.102;19.958;2022-07-29T00:58:26;99068.80;;;18.30
68510;BMP180;55512;50.102;19.958;2022-07-29T01:00:52;99065.40;;;18.30
68510;BMP180;55512;50.102;19.958;2022-07-29T01:03:18;99060.80;;;18.30
68510;BMP180;55512;50.102;19.958;2022-07-29T01:05:45;99059.00;;;18.30
68510;BMP180;55512;50.102;19.958;2022-07-29T01:08:14;99058.00;;;18.30
68510;BMP180;55512;50.102;19.958;2022-07-29T01:10:41;99056.80;;;18.20
68510;BMP180;55512;50.102;19.958;2022-07-29T01:13:09;99059.80;;;18.20
68510;BMP180;55512;50.102;19.958;2022-07-29T01:15:46;99059.80;;;18.24
68510;BMP180;55512;50.102;19.958;2022-07-29T01:18:34;99058.20;;;18.28
68510;BMP180;55512;50.102;19.958;2022-07-29T01:21:59;99058.00;;;18.30
68510;BMP180;55512;50.102;19.958;2022-07-29T01:29:59;99047.80;;;18.30
68510;BMP180;55512;50.102;19.958;2022-07-29T01:32:34;99042.80;;;18.26
68510;BMP180;55512;50.102;19.958;2022-07-29T01:35:23;99044.60;;;18.24
68510;BMP180;55512;50.102;19.958;2022-07-29T01:40:51;99044.20;;;18.24
68510;BMP180;55512;50.102;19.958;2022-07-29T01:43:51;99046.00;;;18.22
68510;BMP180;55512;50.102;19.958;2022-07-29T01:46:25;99053.20;;;18.22
68510;BMP180;55512;50.102;19.958;2022-07-29T01:49:13;99050.00;;;18.28
68510;BMP180;55512;50.102;19.958;2022-07-29T01:52:07;99048.20;;;18.24
68510;BMP180;55512;50.102;19.958;2022-07-29T01:54:42;99048.20;;;18.20
68510;BMP180;55512;50.102;19.958;2022-07-29T01:57:13;99052.20;;;18.20
68510;BMP180;55512;50.102;19.958;2022-07-29T01:59:41;99046.80;;;18.20
68510;BMP180;55512;50.102;19.958;2022-07-29T02:02:11;99045.00;;;18.20
68510;BMP180;55512;50.102;19.958;2022-07-29T02:04:40;99045.80;;;18.12
68510;BMP180;55512;50.102;19.958;2022-07-29T02:07:12;99040.40;;;18.10
68510;BMP180;55512;50.102;19.958;2022-07-29T02:09:41;99036.40;;;18.10
68510;BMP180;55512;50.102;19.958;2022-07-29T02:12:08;99036.20;;;18.02
68510;BMP180;55512;50.102;19.958;2022-07-29T02:14:41;99030.60;;;18.00
68510;BMP180;55512;50.102;19.958;2022-07-29T02:17:12;99031.60;;;18.00
68510;BMP180;55512;50.102;19.958;2022-07-29T02:19:40;99031.20;;;17.96
68510;BMP180;55512;50.102;19.958;2022-07-29T02:22:09;99032.80;;;17.90
68510;BMP180;55512;50.102;19.958;2022-07-29T02:24:37;99026.80;;;17.90
68510;BMP180;55512;50.102;19.958;2022-07-29T02:27:07;99025.00;;;17.90
68510;BMP180;55512;50.102;19.958;2022-07-29T02:29:35;99020.00;;;17.80
68510;BMP180;55512;50.102;19.958;2022-07-29T02:32:03;99018.20;;;17.80
68510;BMP180;55512;50.102;19.958;2022-07-29T02:34:30;99012.00;;;17.80
68510;BMP180;55512;50.102;19.958;2022-07-29T02:36:56;99013.40;;;17.80
68510;BMP180;55512;50.102;19.958;2022-07-29T02:39:24;99009.60;;;17.80
68510;BMP180;55512;50.102;19.958;2022-07-29T02:41:57;99003.80;;;17.80
68510;BMP180;55512;50.102;19.958;2022-07-29T02:44:25;99008.60;;;17.72
68510;BMP180;55512;50.102;19.958;2022-07-29T02:47:17;99008.00;;;17.70
68510;BMP180;55512;50.102;19.958;2022-07-29T02:49:56;99003.00;;;17.70
68510;BMP180;55512;50.102;19.958;2022-07-29T02:55:33;98995.00;;;17.64
68510;BMP180;55512;50.102;19.958;2022-07-29T03:00:39;98992.40;;;17.60
68510;BMP180;55512;50.102;19.958;2022-07-29T03:03:12;98992.80;;;17.60
68510;BMP180;55512;50.102;19.958;2022-07-29T03:05:39;98992.60;;;17.60
68510;BMP180;55512;50.102;19.958;2022-07-29T03:08:09;98994.20;;;17.60
68510;BMP180;55512;50.102;19.958;2022-07-29T03:10:43;98996.00;;;17.50
68510;BMP180;55512;50.102;19.958;2022-07-29T03:13:09;98996.20;;;17.50
68510;BMP180;55512;50.102;19.958;2022-07-29T03:15:36;98998.80;;;17.44
68510;BMP180;55512;50.102;19.958;2022-07-29T03:18:02;98998.80;;;17.40
68510;BMP180;55512;50.102;19.958;2022-07-29T03:20:29;98997.00;;;17.40
68510;BMP180;55512;50.102;19.958;2022-07-29T03:22:54;98998.60;;;17.40
68510;BMP180;55512;50.102;19.958;2022-07-29T03:25:20;99000.80;;;17.40
68510;BMP180;55512;50.102;19.958;2022-07-29T03:27:47;98999.00;;;17.38
68510;BMP180;55512;50.102;19.958;2022-07-29T03:30:14;99001.20;;;17.36
68510;BMP180;55512;50.102;19.958;2022-07-29T03:32:40;98996.00;;;17.40
68510;BMP180;55512;50.102;19.958;2022-07-29T03:35:07;99006.80;;;17.34
68510;BMP180;55512;50.102;19.958;2022-07-29T03:37:33;99015.20;;;17.40
68510;BMP180;55512;50.102;19.958;2022-07-29T03:40:01;99019.60;;;17.40
68510;BMP180;55512;50.102;19.958;2022-07-29T03:42:32;99013.20;;;17.40
68510;BMP180;55512;50.102;19.958;2022-07-29T03:45:05;99007.60;;;17.40
68510;BMP180;55512;50.102;19.958;2022-07-29T03:47:35;99006.80;;;17.40
68510;BMP180;55512;50.102;19.958;2022-07-29T03:50:06;99002.00;;;17.40
68510;BMP180;55512;50.102;19.958;2022-07-29T03:52:33;99009.60;;;17.32
68510;BMP180;55512;50.102;19.958;2022-07-29T03:54:59;99015.80;;;17.40
68510;BMP180;55512;50.102;19.958;2022-07-29T03:57:27;99018.80;;;17.50
68510;BMP180;55512;50.102;19.958;2022-07-29T03:59:54;99022.00;;;17.54
68510;BMP180;55512;50.102;19.958;2022-07-29T04:02:21;99019.40;;;17.60
68510;BMP180;55512;50.102;19.958;2022-07-29T04:04:48;99022.00;;;17.58
68510;BMP180;55512;50.102;19.958;2022-07-29T04:07:15;99021.20;;;17.60
68510;BMP180;55512;50.102;19.958;2022-07-29T04:09:41;99020.80;;;17.60
68510;BMP180;55512;50.102;19.958;2022-07-29T04:12:08;99021.00;;;17.62
68510;BMP180;55512;50.102;19.958;2022-07-29T04:14:34;99017.60;;;17.66
68510;BMP180;55512;50.102;19.958;2022-07-29T04:17:01;99015.20;;;17.70
68510;BMP180;55512;50.102;19.958;2022-07-29T04:19:27;99006.80;;;17.70
68510;BMP180;55512;50.102;19.958;2022-07-29T04:21:53;99007.00;;;17.70
68510;BMP180;55512;50.102;19.958;2022-07-29T04:24:18;99011.40;;;17.70
68510;BMP180;55512;50.102;19.958;2022-07-29T04:26:46;99008.00;;;17.70
68510;BMP180;55512;50.102;19.958;2022-07-29T04:29:12;99005.80;;;17.70
68510;BMP180;55512;50.102;19.958;2022-07-29T04:31:40;99007.80;;;17.80
68510;BMP180;55512;50.102;19.958;2022-07-29T04:34:06;99010.20;;;17.80
68510;BMP180;55512;50.102;19.958;2022-07-29T04:36:32;99016.60;;;17.82
68510;BMP180;55512;50.102;19.958;2022-07-29T04:38:58;99012.40;;;17.90
68510;BMP180;55512;50.102;19.958;2022-07-29T04:41:24;99013.80;;;17.90
68510;BMP180;55512;50.102;19.958;2022-07-29T04:43:49;99008.20;;;17.90
68510;BMP180;55512;50.102;19.958;2022-07-29T04:46:15;99016.20;;;18.00
68510;BMP180;55512;50.102;19.958;2022-07-29T04:48:40;99018.60;;;18.00
68510;BMP180;55512;50.102;19.958;2022-07-29T04:51:06;99023.00;;;18.10
68510;BMP180;55512;50.102;19.958;2022-07-29T04:53:32;99022.40;;;18.16
68510;BMP180;55512;50.102;19.958;2022-07-29T04:55:57;99018.40;;;18.20
68510;BMP180;55512;50.102;19.958;2022-07-29T04:58:23;99010.40;;;18.30
68510;BMP180;55512;50.102;19.958;2022-07-29T05:00:49;99000.40;;;18.30
68510;BMP180;55512;50.102;19.958;2022-07-29T05:03:15;98997.60;;;18.40
68510;BMP180;55512;50.102;19.958;2022-07-29T05:05:41;98997.40;;;18.40
68510;BMP180;55512;50.102;19.958;2022-07-29T05:08:07;99003.60;;;18.50
68510;BMP180;55512;50.102;19.958;2022-07-29T05:10:33;99004.60;;;18.52
68510;BMP180;55512;50.102;19.958;2022-07-29T05:13:04;99006.40;;;18.60
68510;BMP180;55512;50.102;19.958;2022-07-29T05:15:31;99001.60;;;18.68
68510;BMP180;55512;50.102;19.958;2022-07-29T05:17:56;98999.00;;;18.70
68510;BMP180;55512;50.102;19.958;2022-07-29T05:20:22;99001.60;;;18.76
68510;BMP180;55512;50.102;19.958;2022-07-29T05:22:52;99002.40;;;18.80
68510;BMP180;55512;50.102;19.958;2022-07-29T05:25:18;99006.80;;;18.80
68510;BMP180;55512;50.102;19.958;2022-07-29T05:27:43;99011.00;;;18.90
68510;BMP180;55512;50.102;19.958;2022-07-29T05:30:09;99012.20;;;18.96
68510;BMP180;55512;50.102;19.958;2022-07-29T05:32:35;99014.80;;;19.00
68510;BMP180;55512;50.102;19.958;2022-07-29T05:35:00;99011.60;;;19.00
68510;BMP180;55512;50.102;19.958;2022-07-29T05:37:25;99001.80;;;19.10
68510;BMP180;55512;50.102;19.958;2022-07-29T05:39:51;99001.60;;;19.10
68510;BMP180;55512;50.102;19.958;2022-07-29T05:42:17;99001.20;;;19.20
68510;BMP180;55512;50.102;19.958;2022-07-29T05:44:42;99000.60;;;19.20
68510;BMP180;55512;50.102;19.958;2022-07-29T05:47:07;99002.40;;;19.30
68510;BMP180;55512;50.102;19.958;2022-07-29T05:49:33;99003.80;;;19.30
68510;BMP180;55512;50.102;19.958;2022-07-29T05:51:59;99006.40;;;19.40
68510;BMP180;55512;50.102;19.958;2022-07-29T05:54:24;99009.60;;;19.40
68510;BMP180;55512;50.102;19.958;2022-07-29T05:56:50;99010.00;;;19.50
68510;BMP180;55512;50.102;19.958;2022-07-29T05:59:16;99014.00;;;19.50
68510;BMP180;55512;50.102;19.958;2022-07-29T06:01:41;99016.60;;;19.60
68510;BMP180;55512;50.102;19.958;2022-07-29T06:04:07;99020.60;;;19.60
68510;BMP180;55512;50.102;19.958;2022-07-29T06:06:34;99019.00;;;19.70
68510;BMP180;55512;50.102;19.958;2022-07-29T06:09:01;99017.80;;;19.70
68510;BMP180;55512;50.102;19.958;2022-07-29T06:11:27;99020.40;;;19.76
68510;BMP180;55512;50.102;19.958;2022-07-29T06:13:52;99021.80;;;19.80
68510;BMP180;55512;50.102;19.958;2022-07-29T06:16:18;99017.40;;;19.90
68510;BMP180;55512;50.102;19.958;2022-07-29T06:18:44;99023.00;;;19.90
68510;BMP180;55512;50.102;19.958;2022-07-29T06:21:10;99023.80;;;20.00
68510;BMP180;55512;50.102;19.958;2022-07-29T06:23:37;99017.60;;;20.02
68510;BMP180;55512;50.102;19.958;2022-07-29T06:26:03;99021.00;;;20.10
68510;BMP180;55512;50.102;19.958;2022-07-29T06:28:28;99012.60;;;20.20
68510;BMP180;55512;50.102;19.958;2022-07-29T06:30:54;99017.60;;;20.26
68510;BMP180;55512;50.102;19.958;2022-07-29T06:33:19;99019.20;;;20.30
68510;BMP180;55512;50.102;19.958;2022-07-29T06:35:45;99021.20;;;20.40
68510;BMP180;55512;50.102;19.958;2022-07-29T06:38:13;99014.60;;;20.46
68510;BMP180;55512;50.102;19.958;2022-07-29T06:40:45;99011.80;;;20.50
68510;BMP180;55512;50.102;19.958;2022-07-29T06:43:39;99014.60;;;20.60
68510;BMP180;55512;50.102;19.958;2022-07-29T06:46:13;99020.20;;;20.66
68510;BMP180;55512;50.102;19.958;2022-07-29T06:48:40;99018.00;;;20.70
68510;BMP180;55512;50.102;19.958;2022-07-29T06:51:08;99019.60;;;20.80
68510;BMP180;55512;50.102;19.958;2022-07-29T06:53:35;99018.00;;;20.90
68510;BMP180;55512;50.102;19.958;2022-07-29T06:56:03;99016.40;;;21.00
68510;BMP180;55512;50.102;19.958;2022-07-29T06:58:29;99021.40;;;21.10
68510;BMP180;55512;50.102;19.958;2022-07-29T07:00:57;99014.20;;;21.24
68510;BMP180;55512;50.102;19.958;2022-07-29T07:03:24;99009.00;;;21.40
68510;BMP180;55512;50.102;19.958;2022-07-29T07:05:53;99015.00;;;21.52
68510;BMP180;55512;50.102;19.958;2022-07-29T07:08:20;99016.40;;;21.70
68510;BMP180;55512;50.102;19.958;2022-07-29T07:10:47;99013.40;;;21.80
68510;BMP180;55512;50.102;19.958;2022-07-29T07:13:13;99017.20;;;21.92
68510;BMP180;55512;50.102;19.958;2022-07-29T07:15:38;99010.60;;;22.10
68510;BMP180;55512;50.102;19.958;2022-07-29T07:18:05;99010.60;;;22.14
68510;BMP180;55512;50.102;19.958;2022-07-29T07:20:33;99013.80;;;22.20
68510;BMP180;55512;50.102;19.958;2022-07-29T07:22:59;99010.40;;;22.28
68510;BMP180;55512;50.102;19.958;2022-07-29T07:25:24;99008.80;;;22.30
68510;BMP180;55512;50.102;19.958;2022-07-29T07:27:50;99009.20;;;22.40
68510;BMP180;55512;50.102;19.958;2022-07-29T07:30:16;99007.20;;;22.40
68510;BMP180;55512;50.102;19.958;2022-07-29T07:32:42;99008.00;;;22.44
68510;BMP180;55512;50.102;19.958;2022-07-29T07:35:09;99010.20;;;22.48
68510;BMP180;55512;50.102;19.958;2022-07-29T07:37:35;99011.20;;;22.50
68510;BMP180;55512;50.102;19.958;2022-07-29T07:40:02;99013.80;;;22.50
68510;BMP180;55512;50.102;19.958;2022-07-29T07:42:28;99017.00;;;22.50
68510;BMP180;55512;50.102;19.958;2022-07-29T07:44:53;99015.00;;;22.60
68510;BMP180;55512;50.102;19.958;2022-07-29T07:47:19;99012.40;;;22.70
68510;BMP180;55512;50.102;19.958;2022-07-29T07:49:51;99014.60;;;22.88
68510;BMP180;55512;50.102;19.958;2022-07-29T07:52:20;99020.20;;;23.00
68510;BMP180;55512;50.102;19.958;2022-07-29T07:54:46;99011.60;;;23.16
68510;BMP180;55512;50.102;19.958;2022-07-29T07:57:13;99020.80;;;23.30
68510;BMP180;55512;50.102;19.958;2022-07-29T07:59:39;99017.80;;;23.42
68510;BMP180;55512;50.102;19.958;2022-07-29T08:02:05;99020.40;;;23.60
68510;BMP180;55512;50.102;19.958;2022-07-29T08:04:32;99023.00;;;23.70
68510;BMP180;55512;50.102;19.958;2022-07-29T08:06:58;99011.80;;;23.80
68510;BMP180;55512;50.102;19.958;2022-07-29T08:09:26;99018.60;;;23.92
68510;BMP180;55512;50.102;19.958;2022-07-29T08:11:53;99013.80;;;24.08
68510;BMP180;55512;50.102;19.958;2022-07-29T08:14:19;99012.60;;;24.20
68510;BMP180;55512;50.102;19.958;2022-07-29T08:16:45;99015.40;;;24.30
68510;BMP180;55512;50.102;19.958;2022-07-29T08:19:10;99014.20;;;24.50
68510;BMP180;55512;50.102;19.958;2022-07-29T08:21:36;99013.60;;;24.60
68510;BMP180;55512;50.102;19.958;2022-07-29T08:24:02;99006.60;;;24.70
68510;BMP180;55512;50.102;19.958;2022-07-29T08:26:46;99010.00;;;24.80
68510;BMP180;55512;50.102;19.958;2022-07-29T08:29:12;99007.00;;;24.90
68510;BMP180;55512;50.102;19.958;2022-07-29T08:31:39;99009.00;;;24.90
68510;BMP180;55512;50.102;19.958;2022-07-29T08:34:06;99005.40;;;25.00
68510;BMP180;55512;50.102;19.958;2022-07-29T08:36:33;99005.20;;;25.02
68510;BMP180;55512;50.102;19.958;2022-07-29T08:39:00;99008.20;;;25.12
68510;BMP180;55512;50.102;19.958;2022-07-29T08:41:27;99008.80;;;25.20
68510;BMP180;55512;50.102;19.958;2022-07-29T08:43:52;99013.80;;;25.30
68510;BMP180;55512;50.102;19.958;2022-07-29T08:46:20;99009.60;;;25.40
68510;BMP180;55512;50.102;19.958;2022-07-29T08:48:47;99013.40;;;25.46
68510;BMP180;55512;50.102;19.958;2022-07-29T08:51:19;99013.20;;;25.54
68510;BMP180;55512;50.102;19.958;2022-07-29T08:53:48;99024.40;;;25.64
68510;BMP180;55512;50.102;19.958;2022-07-29T08:56:15;99014.00;;;25.70
68510;BMP180;55512;50.102;19.958;2022-07-29T08:58:48;99013.80;;;25.80
68510;BMP180;55512;50.102;19.958;2022-07-29T09:01:22;99009.40;;;25.80
68510;BMP180;55512;50.102;19.958;2022-07-29T09:03:49;99012.60;;;25.90
68510;BMP180;55512;50.102;19.958;2022-07-29T09:06:18;98998.40;;;25.90
68510;BMP180;55512;50.102;19.958;2022-07-29T09:08:45;99005.60;;;25.98
68510;BMP180;55512;50.102;19.958;2022-07-29T09:11:13;99006.80;;;26.00
68510;BMP180;55512;50.102;19.958;2022-07-29T09:13:39;99009.20;;;26.00
68510;BMP180;55512;50.102;19.958;2022-07-29T09:16:05;99007.00;;;26.00
68510;BMP180;55512;50.102;19.958;2022-07-29T09:18:40;98999.40;;;25.98
68510;BMP180;55512;50.102;19.958;2022-07-29T09:21:09;99001.40;;;26.00
68510;BMP180;55512;50.102;19.958;2022-07-29T09:24:12;99001.80;;;26.00
68510;BMP180;55512;50.102;19.958;2022-07-29T09:26:44;99004.20;;;26.00
68510;BMP180;55512;50.102;19.958;2022-07-29T09:29:13;99001.40;;;26.10
68510;BMP180;55512;50.102;19.958;2022-07-29T09:31:43;99004.40;;;26.10
68510;BMP180;55512;50.102;19.958;2022-07-29T09:34:10;99003.00;;;26.12
68510;BMP180;55512;50.102;19.958;2022-07-29T09:36:48;99000.60;;;26.10
68510;BMP180;55512;50.102;19.958;2022-07-29T09:39:29;99001.40;;;26.20
68510;BMP180;55512;50.102;19.958;2022-07-29T09:41:59;98996.40;;;26.26
68510;BMP180;55512;50.102;19.958;2022-07-29T09:44:25;98987.60;;;26.34
68510;BMP180;55512;50.102;19.958;2022-07-29T09:47:03;98985.00;;;26.50
68510;BMP180;55512;50.102;19.958;2022-07-29T09:49:50;98978.00;;;26.60
68510;BMP180;55512;50.102;19.958;2022-07-29T09:52:16;98979.40;;;26.60
68510;BMP180;55512;50.102;19.958;2022-07-29T09:54:41;98974.60;;;26.70
68510;BMP180;55512;50.102;19.958;2022-07-29T09:57:09;98976.80;;;26.80
68510;BMP180;55512;50.102;19.958;2022-07-29T10:00:07;98977.40;;;26.90
68510;BMP180;55512;50.102;19.958;2022-07-29T10:02:38;98974.60;;;27.00
68510;BMP180;55512;50.102;19.958;2022-07-29T10:05:26;98973.60;;;27.02
68510;BMP180;55512;50.102;19.958;2022-07-29T10:07:57;98970.00;;;27.18
68510;BMP180;55512;50.102;19.958;2022-07-29T10:10:27;98972.40;;;27.20
68510;BMP180;55512;50.102;19.958;2022-07-29T10:13:03;98972.20;;;27.20
68510;BMP180;55512;50.102;19.958;2022-07-29T10:15:31;98967.40;;;27.30
68510;BMP180;55512;50.102;19.958;2022-07-29T10:17:58;98966.40;;;27.38
68510;BMP180;55512;50.102;19.958;2022-07-29T10:20:26;98959.80;;;27.40
68510;BMP180;55512;50.102;19.958;2022-07-29T10:22:53;98966.40;;;27.50
68510;BMP180;55512;50.102;19.958;2022-07-29T10:25:20;98968.00;;;27.50
68510;BMP180;55512;50.102;19.958;2022-07-29T10:27:47;98960.60;;;27.60
68510;BMP180;55512;50.102;19.958;2022-07-29T10:30:16;98963.20;;;27.70
68510;BMP180;55512;50.102;19.958;2022-07-29T10:39:04;98957.00;;;27.90
68510;BMP180;55512;50.102;19.958;2022-07-29T10:44:47;98948.40;;;28.00
68510;BMP180;55512;50.102;19.958;2022-07-29T10:47:24;98948.80;;;28.00
68510;BMP180;55512;50.102;19.958;2022-07-29T10:50:02;98943.40;;;28.10
68510;BMP180;55512;50.102;19.958;2022-07-29T10:55:39;98951.80;;;28.12
68510;BMP180;55512;50.102;19.958;2022-07-29T10:58:19;98953.60;;;28.10
68510;BMP180;55512;50.102;19.958;2022-07-29T11:00:49;98943.80;;;28.10
68510;BMP180;55512;50.102;19.958;2022-07-29T11:03:47;98940.40;;;28.00
68510;BMP180;55512;50.102;19.958;2022-07-29T11:06:14;98942.20;;;28.10
68510;BMP180;55512;50.102;19.958;2022-07-29T11:08:40;98937.80;;;28.20
68510;BMP180;55512;50.102;19.958;2022-07-29T11:16:13;98935.20;;;28.34
68510;BMP180;55512;50.102;19.958;2022-07-29T11:21:38;98934.40;;;28.50
68510;BMP180;55512;50.102;19.958;2022-07-29T11:24:17;98931.80;;;28.60
68510;BMP180;55512;50.102;19.958;2022-07-29T11:26:42;98929.60;;;28.62
68510;BMP180;55512;50.102;19.958;2022-07-29T11:29:21;98925.80;;;28.70
68510;BMP180;55512;50.102;19.958;2022-07-29T11:31:52;98932.20;;;28.80
68510;BMP180;55512;50.102;19.958;2022-07-29T11:34:30;98931.80;;;28.90
68510;BMP180;55512;50.102;19.958;2022-07-29T11:39:38;98941.00;;;29.10
68510;BMP180;55512;50.102;19.958;2022-07-29T11:44:56;98930.00;;;29.40
68510;BMP180;55512;50.102;19.958;2022-07-29T11:47:22;98924.60;;;29.50
68510;BMP180;55512;50.102;19.958;2022-07-29T11:49:49;98926.80;;;29.50
68510;BMP180;55512;50.102;19.958;2022-07-29T11:52:17;98930.20;;;29.60
68510;BMP180;55512;50.102;19.958;2022-07-29T11:54:43;98928.20;;;29.60
68510;BMP180;55512;50.102;19.958;2022-07-29T11:57:10;98926.40;;;29.70
68510;BMP180;55512;50.102;19.958;2022-07-29T11:59:41;98909.40;;;29.80
68510;BMP180;55512;50.102;19.958;2022-07-29T12:02:08;98911.00;;;29.90
68510;BMP180;55512;50.102;19.958;2022-07-29T12:04:48;98909.80;;;30.00
68510;BMP180;55512;50.102;19.958;2022-07-29T12:07:14;98903.40;;;30.06
68510;BMP180;55512;50.102;19.958;2022-07-29T12:09:50;98898.20;;;30.10
68510;BMP180;55512;50.102;19.958;2022-07-29T12:12:20;98899.40;;;30.20
68510;BMP180;55512;50.102;19.958;2022-07-29T12:14:46;98897.80;;;30.30
68510;BMP180;55512;50.102;19.958;2022-07-29T12:17:33;98896.20;;;30.40
68510;BMP180;55512;50.102;19.958;2022-07-29T12:20:01;98896.00;;;30.46
68510;BMP180;55512;50.102;19.958;2022-07-29T12:22:34;98894.40;;;30.50
68510;BMP180;55512;50.102;19.958;2022-07-29T12:25:11;98894.40;;;30.70
68510;BMP180;55512;50.102;19.958;2022-07-29T12:27:40;98885.80;;;30.80
68510;BMP180;55512;50.102;19.958;2022-07-29T12:30:15;98886.40;;;30.90
68510;BMP180;55512;50.102;19.958;2022-07-29T12:32:49;98894.60;;;31.02
68510;BMP180;55512;50.102;19.958;2022-07-29T12:35:18;98887.20;;;31.20
68510;BMP180;55512;50.102;19.958;2022-07-29T12:37:48;98885.80;;;31.30
68510;BMP180;55512;50.102;19.958;2022-07-29T12:40:17;98873.40;;;31.50
68510;BMP180;55512;50.102;19.958;2022-07-29T12:43:15;98875.00;;;31.60
68510;BMP180;55512;50.102;19.958;2022-07-29T12:45:46;98881.20;;;31.74
68510;BMP180;55512;50.102;19.958;2022-07-29T12:48:12;98877.20;;;31.90
68510;BMP180;55512;50.102;19.958;2022-07-29T12:51:00;98873.60;;;32.10
68510;BMP180;55512;50.102;19.958;2022-07-29T12:53:28;98877.00;;;32.10
68510;BMP180;55512;50.102;19.958;2022-07-29T12:55:57;98879.20;;;32.30
68510;BMP180;55512;50.102;19.958;2022-07-29T12:58:38;98876.00;;;32.30
68510;BMP180;55512;50.102;19.958;2022-07-29T13:01:08;98873.40;;;32.40
68510;BMP180;55512;50.102;19.958;2022-07-29T13:03:56;98866.80;;;32.50
68510;BMP180;55512;50.102;19.958;2022-07-29T13:06:40;98867.00;;;32.60
68510;BMP180;55512;50.102;19.958;2022-07-29T13:09:17;98862.60;;;32.60
68510;BMP180;55512;50.102;19.958;2022-07-29T13:11:48;98867.40;;;32.70
68510;BMP180;55512;50.102;19.958;2022-07-29T13:14:39;98863.20;;;32.70
68510;BMP180;55512;50.102;19.958;2022-07-29T13:22:11;98859.00;;;32.68
68510;BMP180;55512;50.102;19.958;2022-07-29T13:27:22;98858.00;;;32.50
68510;BMP180;55512;50.102;19.958;2022-07-29T13:29:49;98857.40;;;32.50
68510;BMP180;55512;50.102;19.958;2022-07-29T13:32:21;98851.80;;;32.50
68510;BMP180;55512;50.102;19.958;2022-07-29T13:34:47;98848.40;;;32.50
68510;BMP180;55512;50.102;19.958;2022-07-29T13:37:12;98843.00;;;32.58
68510;BMP180;55512;50.102;19.958;2022-07-29T13:39:39;98840.20;;;32.66
68510;BMP180;55512;50.102;19.958;2022-07-29T13:42:06;98839.20;;;32.70
68510;BMP180;55512;50.102;19.958;2022-07-29T13:44:32;98835.60;;;32.80
68510;BMP180;55512;50.102;19.958;2022-07-29T13:46:58;98834.80;;;32.80
68510;BMP180;55512;50.102;19.958;2022-07-29T13:49:25;98831.40;;;32.80
68510;BMP180;55512;50.102;19.958;2022-07-29T13:51:51;98822.60;;;32.90
68510;BMP180;55512;50.102;19.958;2022-07-29T13:54:17;98822.60;;;33.00
68510;BMP180;55512;50.102;19.958;2022-07-29T13:56:42;98821.80;;;33.14
68510;BMP180;55512;50.102;19.958;2022-07-29T13:59:08;98817.80;;;33.30
68510;BMP180;55512;50.102;19.958;2022-07-29T14:01:35;98818.60;;;33.56
68510;BMP180;55512;50.102;19.958;2022-07-29T14:04:01;98816.20;;;33.70
68510;BMP180;55512;50.102;19.958;2022-07-29T14:06:27;98815.20;;;33.80
68510;BMP180;55512;50.102;19.958;2022-07-29T14:08:53;98811.40;;;33.94
68510;BMP180;55512;50.102;19.958;2022-07-29T14:11:18;98811.20;;;34.10
68510;BMP180;55512;50.102;19.958;2022-07-29T14:13:44;98817.20;;;34.24
68510;BMP180;55512;50.102;19.958;2022-07-29T14:16:09;98812.60;;;34.42
68510;BMP180;55512;50.102;19.958;2022-07-29T14:18:35;98801.80;;;34.70
68510;BMP180;55512;50.102;19.958;2022-07-29T14:21:00;98800.00;;;34.90
68510;BMP180;55512;50.102;19.958;2022-07-29T14:23:26;98801.00;;;35.10
68510;BMP180;55512;50.102;19.958;2022-07-29T14:25:52;98798.20;;;35.26
68510;BMP180;55512;50.102;19.958;2022-07-29T14:28:17;98805.00;;;35.30
68510;BMP180;55512;50.102;19.958;2022-07-29T14:30:42;98803.60;;;35.20
68510;BMP180;55512;50.102;19.958;2022-07-29T14:33:08;98806.20;;;35.08
68510;BMP180;55512;50.102;19.958;2022-07-29T14:35:34;98803.80;;;34.90
68510;BMP180;55512;50.102;19.958;2022-07-29T14:37:59;98801.40;;;34.70
68510;BMP180;55512;50.102;19.958;2022-07-29T14:40:25;98802.00;;;34.60
68510;BMP180;55512;50.102;19.958;2022-07-29T14:42:51;98799.60;;;34.46
68510;BMP180;55512;50.102;19.958;2022-07-29T14:45:17;98790.20;;;34.30
68510;BMP180;55512;50.102;19.958;2022-07-29T14:47:42;98785.40;;;34.20
68510;BMP180;55512;50.102;19.958;2022-07-29T14:50:09;98780.20;;;34.10
68510;BMP180;55512;50.102;19.958;2022-07-29T14:52:37;98777.60;;;34.00
68510;BMP180;55512;50.102;19.958;2022-07-29T14:55:04;98774.60;;;33.90
68510;BMP180;55512;50.102;19.958;2022-07-29T14:57:30;98772.20;;;34.00